createdAt,value
2022-09-28T00:01:41.281Z,99505.81
2022-09-28T00:06:45.378Z,99490.13
2022-09-28T00:11:50.332Z,99482.56
2022-09-28T00:16:53.984Z,99470.62
2022-09-28T00:21:57.642Z,99469.19
2022-09-28T00:27:03.973Z,99468.19
2022-09-28T00:32:11.612Z,99465.66
2022-09-28T00:37:16.155Z,99455.38
2022-09-28T00:42:23.593Z,99448.72
2022-09-28T00:47:49.742Z,99461.78
2022-09-28T00:52:57.799Z,99449.81
2022-09-28T00:58:06.632Z,99442.81
2022-09-28T01:03:11.026Z,99447.94
2022-09-28T01:08:16.096Z,99452.22
2022-09-28T01:13:22.712Z,99458.59
2022-09-28T01:18:35.768Z,99457.72
2022-09-28T01:24:10.310Z,99462.63
2022-09-28T01:29:23.244Z,99466.75
2022-09-28T01:34:33.432Z,99468.59
2022-09-28T01:39:41.160Z,99478.66
2022-09-28T01:44:50.559Z,99470.16
2022-09-28T01:50:00.409Z,99471.81
2022-09-28T01:55:12.069Z,99485.69
2022-09-28T02:00:20.601Z,99471.09
2022-09-28T02:05:31.282Z,99465.09
2022-09-28T02:10:41.060Z,99461.56
2022-09-28T02:15:54.026Z,99458.13
2022-09-28T02:21:02.356Z,99460.56
2022-09-28T02:26:08.073Z,99452.13
2022-09-28T02:31:14.020Z,99446.03
2022-09-28T02:36:18.095Z,99449.34
2022-09-28T02:41:33.774Z,99449.25
2022-09-28T02:46:48.199Z,99459.25
2022-09-28T02:52:23.683Z,99464.56
2022-09-28T02:57:39.431Z,99468.84
2022-09-28T03:02:59.419Z,99462.06
2022-09-28T03:08:08.391Z,99473.38
2022-09-28T03:13:14.303Z,99473.28
2022-09-28T03:18:19.402Z,99478.59
2022-09-28T03:23:25.292Z,99480.38
2022-09-28T03:28:29.848Z,99482.78
2022-09-28T03:33:35.668Z,99478.34
2022-09-28T03:38:39.870Z,99490.16
2022-09-28T03:43:43.877Z,99485.69
2022-09-28T03:48:50.525Z,99493.34
2022-09-28T03:53:54.275Z,99495.06
2022-09-28T03:58:57.893Z,99484.75
2022-09-28T04:04:03.772Z,99483.19
2022-09-28T04:09:07.904Z,99479.78
2022-09-28T04:14:11.736Z,99490.91
2022-09-28T04:19:17.143Z,99481.38
2022-09-28T04:24:21.729Z,99470.00
2022-09-28T04:29:25.695Z,99474.13
2022-09-28T04:34:35.402Z,99486.75
2022-09-28T04:39:44.986Z,99482.31
2022-09-28T04:44:53.047Z,99485.25
2022-09-28T04:49:58.023Z,99477.28
2022-09-28T04:55:01.720Z,99489.97
2022-09-28T05:00:06.514Z,99480.47
2022-09-28T05:05:12.117Z,99489.81
2022-09-28T05:10:16.141Z,99494.88
2022-09-28T05:15:19.947Z,99482.78
2022-09-28T05:20:25.834Z,99494.69
2022-09-28T05:25:29.630Z,99495.50
2022-09-28T05:30:38.315Z,99500.81
2022-09-28T05:35:43.632Z,99499.19
2022-09-28T05:40:47.292Z,99502.84
2022-09-28T05:45:55.322Z,99499.34
2022-09-28T05:51:00.879Z,99501.41
2022-09-28T05:56:04.954Z,99496.00
2022-09-28T06:01:09.201Z,99488.63
2022-09-28T06:06:15.589Z,99499.09
2022-09-28T06:11:20.380Z,99502.59
2022-09-28T06:16:24.709Z,99512.94
2022-09-28T06:21:29.857Z,99513.13
2022-09-28T06:26:33.580Z,99516.25
2022-09-28T06:31:37.330Z,99513.16
2022-09-28T06:36:42.770Z,99523.94
2022-09-28T06:41:46.725Z,99524.19
2022-09-28T06:52:16.727Z,99520.94
2022-09-28T06:57:25.113Z,99526.97
2022-09-28T07:02:28.968Z,99527.09
2022-09-28T07:07:35.576Z,99528.84
2022-09-28T07:12:39.864Z,99535.13
2022-09-28T07:17:57.637Z,99537.06
2022-09-28T07:23:18.091Z,99542.22
2022-09-28T07:28:35.953Z,99547.88
2022-09-28T07:33:39.941Z,99558.50
2022-09-28T07:38:45.959Z,99559.81
2022-09-28T07:43:50.105Z,99566.19
2022-09-28T07:48:54.426Z,99564.91
2022-09-28T07:54:01.033Z,99570.41
2022-09-28T07:59:06.857Z,99568.22
2022-09-28T08:04:15.560Z,99577.34
2022-09-28T08:09:21.174Z,99566.44
2022-09-28T08:14:28.589Z,99570.06
2022-09-28T08:19:53.270Z,99579.97
2022-09-28T08:24:58.317Z,99581.78
2022-09-28T08:30:02.096Z,99581.53
2022-09-28T08:35:08.000Z,99581.84
2022-09-28T08:40:24.685Z,99589.34
2022-09-28T08:45:33.661Z,99595.66
2022-09-28T08:50:43.473Z,99613.22
2022-09-28T08:55:51.223Z,99602.50
2022-09-28T09:00:55.576Z,99607.19
2022-09-28T09:06:06.911Z,99603.53
2022-09-28T09:11:28.675Z,99609.78
2022-09-28T09:16:41.291Z,99615.59
2022-09-28T09:21:51.538Z,99616.06
2022-09-28T09:27:06.574Z,99611.97
2022-09-28T09:32:21.436Z,99612.91
2022-09-28T09:37:46.317Z,99616.88
2022-09-28T09:43:05.305Z,99625.78
2022-09-28T09:48:19.041Z,99626.97
2022-09-28T09:53:28.843Z,99628.97
2022-09-28T09:58:37.459Z,99626.50
2022-09-28T10:55:36.988Z,99630.00
2022-09-28T11:00:42.104Z,99628.03
2022-09-28T11:05:55.898Z,99611.28
2022-09-28T11:11:06.793Z,99616.47
2022-09-28T11:23:02.636Z,99618.97
2022-09-28T11:28:23.411Z,99616.22
2022-09-28T11:33:31.805Z,99624.81
2022-09-28T11:38:42.252Z,99612.63
2022-09-28T11:44:25.441Z,99611.25
2022-09-28T11:50:01.688Z,99618.41
2022-09-28T11:55:15.589Z,99617.91
2022-09-28T12:00:23.114Z,99618.16
2022-09-28T12:05:31.515Z,99626.09
2022-09-28T12:10:44.668Z,99626.09
2022-09-28T12:16:23.433Z,99631.31
2022-09-28T12:21:33.267Z,99650.31
2022-09-28T12:26:43.185Z,99643.87
2022-09-28T12:31:56.940Z,99646.84
2022-09-28T12:37:13.140Z,99637.41
2022-09-28T12:42:32.238Z,99647.22
2022-09-28T12:48:01.631Z,99646.53
2022-09-28T12:53:24.303Z,99637.38
2022-09-28T12:58:41.705Z,99633.88
2022-09-28T13:04:07.583Z,99645.06
2022-09-28T13:09:29.628Z,99641.75
2022-09-28T13:15:14.212Z,99631.28
2022-09-28T13:32:40.662Z,99659.59
2022-09-28T13:38:09.662Z,99658.81
2022-09-28T13:43:28.210Z,99646.06
2022-09-28T13:48:44.931Z,99642.78
2022-09-28T13:54:15.711Z,99657.53
2022-09-28T13:59:27.029Z,99655.25
2022-09-28T14:04:55.443Z,99658.63
2022-09-28T14:10:21.187Z,99647.25
2022-09-28T14:15:45.164Z,99647.59
2022-09-28T14:20:59.492Z,99655.69
2022-09-28T14:26:21.945Z,99650.37
2022-09-28T14:31:29.390Z,99653.19
2022-09-28T14:36:59.461Z,99654.56
2022-09-28T14:42:10.363Z,99649.03
2022-09-28T14:47:35.871Z,99645.03
2022-09-28T14:52:43.912Z,99643.34
2022-09-28T14:57:54.294Z,99652.00
2022-09-28T15:03:03.615Z,99656.06
2022-09-28T15:08:08.004Z,99660.19
2022-09-28T15:13:20.747Z,99663.72
2022-09-28T15:19:05.795Z,99669.19
2022-09-28T15:24:26.010Z,99681.31
2022-09-28T15:29:31.695Z,99688.00
2022-09-28T15:34:54.680Z,99682.16
2022-09-28T15:40:00.214Z,99683.03
2022-09-28T15:45:22.153Z,99689.09
2022-09-28T15:50:29.919Z,99679.81
2022-09-28T15:55:35.583Z,99689.41
2022-09-28T16:00:40.317Z,99696.47
2022-09-28T16:05:47.996Z,99700.91
2022-09-28T16:10:56.511Z,99713.97
2022-09-28T16:16:01.323Z,99708.31
2022-09-28T16:21:32.633Z,99705.91
2022-09-28T16:26:39.064Z,99705.19
2022-09-28T16:31:51.431Z,99698.22
2022-09-28T16:36:56.615Z,99706.16
2022-09-28T16:42:03.751Z,99698.34
2022-09-28T16:47:07.596Z,99693.94
2022-09-28T16:52:13.382Z,99699.97
2022-09-28T16:57:17.430Z,99704.31
2022-09-28T17:08:01.540Z,99709.28
2022-09-28T17:13:05.446Z,99714.38
2022-09-28T17:18:10.711Z,99718.56
2022-09-28T17:23:16.251Z,99713.22
2022-09-28T17:28:25.041Z,99729.50
2022-09-28T17:33:29.278Z,99720.56
2022-09-28T17:38:35.171Z,99713.50
2022-09-28T17:43:41.215Z,99728.03
2022-09-28T17:48:46.662Z,99736.31
2022-09-28T17:53:52.671Z,99733.50
2022-09-28T17:58:58.308Z,99735.94
2022-09-28T18:04:02.632Z,99741.78
2022-09-28T18:09:08.875Z,99732.03
2022-09-28T18:14:12.600Z,99742.25
2022-09-28T18:19:16.300Z,99742.91
2022-09-28T18:24:21.440Z,99747.72
2022-09-28T18:29:25.304Z,99748.38
2022-09-28T18:34:29.065Z,99754.22
2022-09-28T18:39:36.298Z,99757.47
2022-09-28T18:44:40.226Z,99759.72
2022-09-28T18:49:46.695Z,99759.69
2022-09-28T18:54:52.147Z,99756.09
2022-09-28T18:59:55.882Z,99759.34
2022-09-28T19:04:59.796Z,99772.00
2022-09-28T19:10:05.817Z,99770.88
2022-09-28T19:15:10.030Z,99769.00
2022-09-28T19:20:13.848Z,99780.03
2022-09-28T19:25:19.139Z,99782.34
2022-09-28T19:30:22.899Z,99782.13
2022-09-28T19:35:26.633Z,99784.47
2022-09-28T19:40:31.889Z,99781.59
2022-09-28T19:45:37.080Z,99783.03
2022-09-28T19:50:41.695Z,99782.88
2022-09-28T19:55:52.756Z,99783.34
2022-09-28T20:00:56.545Z,99788.41
2022-09-28T20:06:01.730Z,99794.19
2022-09-28T20:11:07.011Z,99795.69
2022-09-28T20:16:12.665Z,99798.13
2022-09-28T20:21:18.438Z,99797.91
2022-09-28T20:26:24.779Z,99795.94
2022-09-28T20:31:28.589Z,99806.06
2022-09-28T20:36:32.829Z,99802.31
2022-09-28T20:41:37.919Z,99807.34
2022-09-28T20:46:43.736Z,99802.19
2022-09-28T20:51:47.512Z,99803.91
2022-09-28T20:56:52.648Z,99793.38
2022-09-28T21:01:56.410Z,99798.53
2022-09-28T21:07:00.154Z,99802.78
2022-09-28T21:12:05.381Z,99800.91
2022-09-28T21:17:09.094Z,99795.53
2022-09-28T21:22:13.010Z,99796.88
2022-09-28T21:27:18.016Z,99795.81
2022-09-28T21:32:23.255Z,99797.41
2022-09-28T21:37:27.005Z,99801.34
2022-09-28T21:42:32.076Z,99804.66
2022-09-28T21:47:35.860Z,99808.66
2022-09-28T21:52:39.525Z,99811.13
2022-09-28T21:57:46.645Z,99812.75
2022-09-28T22:02:51.013Z,99818.47
2022-09-28T22:07:55.124Z,99821.91
2022-09-28T22:13:00.143Z,99836.41
2022-09-28T22:18:03.888Z,99829.50
2022-09-28T22:23:07.583Z,99831.88
2022-09-28T22:28:12.700Z,99836.84
2022-09-28T22:33:16.365Z,99835.81
2022-09-28T22:38:20.863Z,99841.63
2022-09-28T22:43:27.099Z,99846.78
2022-09-28T22:48:30.981Z,99844.94
2022-09-28T22:53:36.036Z,99851.59
2022-09-28T22:58:41.103Z,99853.03
2022-09-28T23:03:45.436Z,99848.50
2022-09-28T23:08:51.418Z,99847.44
2022-09-28T23:13:58.183Z,99852.47
2022-09-28T23:19:01.905Z,99848.97
2022-09-28T23:24:05.702Z,99848.97
2022-09-28T23:29:12.698Z,99849.47
2022-09-28T23:34:16.410Z,99848.44
2022-09-28T23:39:20.392Z,99851.78
2022-09-28T23:44:25.567Z,99851.78
2022-09-28T23:49:29.799Z,99849.16
2022-09-28T23:54:33.849Z,99848.91
2022-09-28T23:59:38.913Z,99844.62
